地図

経路データ

SID SEASON NUMBER BASIN SUBBASIN NAME ISO_TIME NATURE LAT LON WMO_WIND WMO_PRES WMO_AGENCY TRACK_TYPE DIST2LAND LANDFALL IFLAG USA_AGENCY USA_ATCF_ID USA_LAT USA_LON USA_RECORD USA_STATUS USA_WIND USA_PRES USA_SSHS USA_R34_NE USA_R34_SE USA_R34_SW USA_R34_NW USA_R50_NE USA_R50_SE USA_R50_SW USA_R50_NW USA_R64_NE USA_R64_SE USA_R64_SW USA_R64_NW USA_POCI USA_ROCI USA_RMW USA_EYE TOKYO_LAT TOKYO_LON TOKYO_GRADE TOKYO_WIND TOKYO_PRES TOKYO_R50_DIR TOKYO_R50_LONG TOKYO_R50_SHORT TOKYO_R30_DIR TOKYO_R30_LONG TOKYO_R30_SHORT TOKYO_LAND CMA_LAT CMA_LON CMA_CAT CMA_WIND CMA_PRES HKO_LAT HKO_LON HKO_CAT HKO_WIND HKO_PRES NEWDELHI_LAT NEWDELHI_LON NEWDELHI_GRADE NEWDELHI_WIND NEWDELHI_PRES NEWDELHI_CI NEWDELHI_DP NEWDELHI_POCI REUNION_LAT REUNION_LON REUNION_TYPE REUNION_WIND REUNION_PRES REUNION_TNUM REUNION_CI REUNION_RMW REUNION_R34_NE REUNION_R34_SE REUNION_R34_SW REUNION_R34_NW REUNION_R50_NE REUNION_R50_SE REUNION_R50_SW REUNION_R50_NW REUNION_R64_NE REUNION_R64_SE REUNION_R64_SW REUNION_R64_NW BOM_LAT BOM_LON BOM_TYPE BOM_WIND BOM_PRES BOM_TNUM BOM_CI BOM_RMW BOM_R34_NE BOM_R34_SE BOM_R34_SW BOM_R34_NW BOM_R50_NE BOM_R50_SE BOM_R50_SW BOM_R50_NW BOM_R64_NE BOM_R64_SE BOM_R64_SW BOM_R64_NW BOM_ROCI BOM_POCI BOM_EYE BOM_POS_METHOD BOM_PRES_METHOD NADI_LAT NADI_LON NADI_CAT NADI_WIND NADI_PRES WELLINGTON_LAT WELLINGTON_LON WELLINGTON_WIND WELLINGTON_PRES DS824_LAT DS824_LON DS824_STAGE DS824_WIND DS824_PRES TD9636_LAT TD9636_LON TD9636_STAGE TD9636_WIND TD9636_PRES TD9635_LAT TD9635_LON TD9635_WIND TD9635_PRES TD9635_ROCI NEUMANN_LAT NEUMANN_LON NEUMANN_CLASS NEUMANN_WIND NEUMANN_PRES MLC_LAT MLC_LON MLC_CLASS MLC_WIND MLC_PRES USA_GUST BOM_GUST BOM_GUST_PER REUNION_GUST REUNION_GUST_PER USA_SEAHGT USA_SEARAD_NE USA_SEARAD_SE USA_SEARAD_SW USA_SEARAD_NW STORM_SPEED STORM_DIR
1890303N16148 1890 39 WP MM NOT_NAMED 1890-10-29 16:00:00 NR 16.1000 147.900 main 2039 2039 __________O___ -1 16.1000 147.900 7 23 303
1890303N16148 1890 39 WP MM NOT_NAMED 1890-10-29 18:00:00 NR 16.5170 147.235 main 2083 2086 __________P___ -1 16.5170 147.235 7 22 303
1890303N16148 1890 39 WP MM NOT_NAMED 1890-10-29 21:00:00 NR 17.1216 146.271 main 2086 1996 __________P___ -1 17.1216 146.271 7 21 304
1890303N16148 1890 39 WP MM NOT_NAMED 1890-10-30 00:00:00 NR 17.6776 145.402 main 1996 1914 __________P___ -1 17.6776 145.402 7 18 305
1890303N16148 1890 39 WP MM NOT_NAMED 1890-10-30 03:00:00 NR 18.1598 144.691 main 1914 1895 __________P___ -1 18.1598 144.691 7 16 306
1890303N16148 1890 39 WP MM NOT_NAMED 1890-10-30 04:00:00 NR 18.3000 144.500 main 1895 1861 __________O___ -1 18.3000 144.500 7 12 309
1890303N16148 1890 39 WP MM NOT_NAMED 1890-10-30 06:00:00 NR 18.5474 144.195 main 1861 1808 __________P___ -1 18.5474 144.195 7 10 314
1890303N16148 1890 39 WP MM NOT_NAMED 1890-10-30 09:00:00 NR 18.8569 143.896 main 1808 1778 __________P___ -1 18.8569 143.896 7 7 323
1890303N16148 1890 39 WP MM NOT_NAMED 1890-10-30 12:00:00 NR 19.1285 143.730 main 1778 1744 __________P___ -1 19.1285 143.730 7 6 335
1890303N16148 1890 39 WP MM NOT_NAMED 1890-10-30 15:00:00 NR 19.4017 143.630 main 1744 1733 __________P___ -1 19.4017 143.630 7 6 342
1890303N16148 1890 39 WP MM NOT_NAMED 1890-10-30 16:00:00 NR 19.5000 143.600 main 1733 1709 __________O___ -1 19.5000 143.600 7 7 335
1890303N16148 1890 39 WP MM NOT_NAMED 1890-10-30 18:00:00 NR 19.7328 143.465 main 1709 1659 __________P___ -1 19.7328 143.465 7 8 334
1890303N16148 1890 39 WP MM NOT_NAMED 1890-10-30 21:00:00 NR 20.1010 143.288 main 1659 1614 __________P___ -1 20.1010 143.288 7 8 339
1890303N16148 1890 39 WP MM NOT_NAMED 1890-10-31 00:00:00 NR 20.4836 143.159 main 1614 1570 __________P___ -1 20.4836 143.159 7 8 347
1890303N16148 1890 39 WP MM NOT_NAMED 1890-10-31 03:00:00 NR 20.8713 143.100 main 1570 1560 __________P___ -1 20.8713 143.100 7 8 354
1890303N16148 1890 39 WP MM NOT_NAMED 1890-10-31 04:00:00 NR 21.0000 143.100 main 1560 1529 __________O___ -1 21.0000 143.100 7 8 3
1890303N16148 1890 39 WP MM NOT_NAMED 1890-10-31 06:00:00 NR 21.2604 143.121 main 1529 1494 __________P___ -1 21.2604 143.121 7 8 10
1890303N16148 1890 39 WP MM NOT_NAMED 1890-10-31 09:00:00 NR 21.6512 143.222 main 1494 1474 __________P___ -1 21.6512 143.222 7 8 18
1890303N16148 1890 39 WP MM NOT_NAMED 1890-10-31 12:00:00 NR 22.0314 143.392 main 1474 1439 __________P___ -1 22.0314 143.392 7 8 26
1890303N16148 1890 39 WP MM NOT_NAMED 1890-10-31 15:00:00 NR 22.3883 143.616 main 1439 1432 __________P___ -1 22.3883 143.616 7 8 31
1890303N16148 1890 39 WP MM NOT_NAMED 1890-10-31 16:00:00 NR 22.5000 143.700 main 1432 1413 __________O___ -1 22.5000 143.700 7 8 37
1890303N16148 1890 39 WP MM NOT_NAMED 1890-10-31 18:00:00 NR 22.7107 143.878 main 1415 1389 __________P___ -1 22.7107 143.878 7 8 41
1890303N16148 1890 39 WP MM NOT_NAMED 1890-10-31 21:00:00 NR 22.9999 144.166 main 1392 1369 __________P___ -1 22.9999 144.166 7 8 45
1890303N16148 1890 39 WP MM NOT_NAMED 1890-11-01 00:00:00 NR 23.2656 144.474 main 1369 1354 __________P___ -1 23.2656 144.474 7 8 48
1890303N16148 1890 39 WP MM NOT_NAMED 1890-11-01 03:00:00 NR 23.5174 144.792 main 1357 1347 __________P___ -1 23.5174 144.792 7 8 49
1890303N16148 1890 39 WP MM NOT_NAMED 1890-11-01 04:00:00 NR 23.6000 144.900 main 1350 __________O___ -1 23.6000 144.900 7 8 49

デジタル台風データ・検索

IBTrACS Databaseについて

本データベースは、米国NOAAが公開する1842年以降の世界の熱帯低気圧のベストトラックデータアーカイブInternational Best Track Archive for Climate Stewardship (IBTrACS)を、ウェブで閲覧しやすい形式に変換したものです。

最終更新日:2021-12-06